createdAt,value
2017-05-19T16:24:46.717Z,7.08
2017-05-19T16:27:21.082Z,8.18
2017-05-19T16:29:55.357Z,7.12
2017-05-19T16:32:29.469Z,7.72
2017-05-19T16:35:03.679Z,7.10
2017-05-19T16:37:37.884Z,7.78
2017-05-19T16:40:12.113Z,7.50
2017-05-19T16:42:46.272Z,7.70
2017-05-19T16:45:20.776Z,7.58
2017-05-19T16:47:55.061Z,7.60
2017-05-19T16:54:12.570Z,8.26
2017-05-19T16:56:47.090Z,7.66
2017-05-19T16:59:21.672Z,8.30
2017-05-19T17:01:55.980Z,8.02
2017-05-19T17:04:30.179Z,8.40
2017-05-19T17:07:04.502Z,8.70
2017-05-19T17:09:38.962Z,8.34
2017-05-19T17:12:13.123Z,8.16
2017-05-19T17:14:47.510Z,8.16
2017-05-19T17:17:21.782Z,9.04
2017-05-19T17:19:56.048Z,9.14
2017-05-19T17:22:30.406Z,8.48
2017-05-19T17:25:04.566Z,9.46
2017-05-19T17:27:39.127Z,9.08
2017-05-19T17:30:13.491Z,8.92
2017-05-19T17:32:47.686Z,9.26
2017-05-19T17:35:21.878Z,9.32
2017-05-19T17:37:56.219Z,8.72
2017-05-19T17:40:30.541Z,9.30
2017-05-19T17:43:04.753Z,8.58
2017-05-19T17:45:38.958Z,8.82
2017-05-19T17:48:12.990Z,8.88
2017-05-19T17:50:47.230Z,8.88
2017-05-19T17:53:21.576Z,9.30
2017-05-19T17:55:55.896Z,9.90
2017-05-19T17:58:30.173Z,9.28
2017-05-19T18:01:04.310Z,8.86
2017-05-19T18:03:38.468Z,9.30
2017-05-19T18:06:12.766Z,9.18
2017-05-19T18:08:47.030Z,9.26
2017-05-19T18:11:21.264Z,9.12
2017-05-19T18:13:55.369Z,9.60
2017-05-19T18:16:29.478Z,10.90
2017-05-19T18:19:03.602Z,9.36
2017-05-19T18:21:38.090Z,10.44
2017-05-19T18:24:12.198Z,9.94
2017-05-19T18:26:46.508Z,10.30
2017-05-19T18:29:20.557Z,9.26
2017-05-19T18:31:55.003Z,10.22
2017-05-19T18:34:29.295Z,10.52
2017-05-19T18:37:03.418Z,9.44
2017-05-19T18:39:37.788Z,11.36
2017-05-19T18:42:11.973Z,10.22
2017-05-19T18:44:46.210Z,9.64
2017-05-19T18:47:20.436Z,10.04
2017-05-19T18:49:54.574Z,9.92
2017-05-19T18:52:28.818Z,9.96
2017-05-19T18:55:03.022Z,9.90
2017-05-19T18:57:37.176Z,10.48
2017-05-19T19:00:11.275Z,9.62
2017-05-19T19:02:45.455Z,10.44
2017-05-19T19:05:19.508Z,8.94
2017-05-19T19:07:53.787Z,9.78
2017-05-19T19:10:27.869Z,11.18
2017-05-19T19:13:02.096Z,34.50
2017-05-19T19:15:36.295Z,11.78
2017-05-19T19:18:10.634Z,10.72
2017-05-19T19:20:44.965Z,9.74
2017-05-19T19:23:19.220Z,9.88
2017-05-19T19:25:53.413Z,10.72
2017-05-19T19:28:27.650Z,9.58
2017-05-19T19:31:01.910Z,14.04
2017-05-19T19:33:36.237Z,11.58
2017-05-19T19:36:10.441Z,10.52
2017-05-19T19:38:44.766Z,10.68
2017-05-19T19:41:19.030Z,9.82
2017-05-19T19:43:53.340Z,10.08
2017-05-19T19:46:27.610Z,10.26
2017-05-19T19:49:01.784Z,10.62
2017-05-19T19:51:36.117Z,9.88
2017-05-19T19:54:10.453Z,9.68
2017-05-19T19:56:44.820Z,11.08
2017-05-19T19:59:18.953Z,9.72
2017-05-19T20:01:53.285Z,9.56
2017-05-19T20:04:27.534Z,9.32
2017-05-19T20:07:01.661Z,9.00
2017-05-19T20:09:35.900Z,10.22
2017-05-19T20:12:10.108Z,10.38
2017-05-19T20:14:44.480Z,10.46
2017-05-19T20:17:18.561Z,9.94
2017-05-19T20:19:52.827Z,9.90
2017-05-19T20:22:27.150Z,11.02
2017-05-19T20:25:01.504Z,10.58
2017-05-19T20:27:35.815Z,10.38
2017-05-19T20:30:09.894Z,10.12
2017-05-19T20:32:44.223Z,10.10
2017-05-19T20:35:18.335Z,10.18
2017-05-19T20:37:52.633Z,9.16
2017-05-19T20:40:26.900Z,10.24
2017-05-19T20:43:01.213Z,10.92
2017-05-19T20:45:35.517Z,10.82
2017-05-19T20:48:09.835Z,12.10
2017-05-19T20:50:44.145Z,9.98
2017-05-19T20:53:18.334Z,10.68
2017-05-19T20:55:52.497Z,11.02
2017-05-19T20:58:26.826Z,9.68
2017-05-19T21:01:01.208Z,11.18
2017-05-19T21:03:35.537Z,10.22
2017-05-19T21:06:09.727Z,9.90
2017-05-19T21:08:44.226Z,10.96
2017-05-19T21:11:18.947Z,11.26
2017-05-19T21:13:53.348Z,10.88
2017-05-19T21:16:27.513Z,9.88
2017-05-19T21:19:01.709Z,9.24
2017-05-19T21:21:35.818Z,9.70
2017-05-19T21:24:09.953Z,9.94
2017-05-19T21:26:44.299Z,10.98
2017-05-19T21:29:18.501Z,11.44
2017-05-19T21:31:52.751Z,7.80
2017-05-19T21:34:26.872Z,6.90
2017-05-19T21:37:01.121Z,6.10
2017-05-19T21:39:35.383Z,5.00
2017-05-19T21:42:09.668Z,4.82
2017-05-19T21:44:43.941Z,4.18
2017-05-19T21:47:18.163Z,3.62
2017-05-19T21:49:52.438Z,3.44
2017-05-19T21:52:26.639Z,3.32
2017-05-19T21:55:00.758Z,3.10
2017-05-19T21:57:35.049Z,3.34
2017-05-19T22:00:13.093Z,2.60
2017-05-19T22:02:47.345Z,2.90
2017-05-19T22:05:21.594Z,2.32
2017-05-19T22:07:55.829Z,2.22
2017-05-19T22:10:30.030Z,2.36
2017-05-19T22:13:04.230Z,2.06
2017-05-19T22:15:38.504Z,1.84
2017-05-19T22:18:12.700Z,2.20
2017-05-19T22:20:46.865Z,2.04
2017-05-19T22:23:21.120Z,2.08
2017-05-19T22:25:55.461Z,1.88
2017-05-19T22:28:29.838Z,1.80
2017-05-19T22:31:04.060Z,1.84
2017-05-19T22:33:38.313Z,1.70
2017-05-19T22:36:12.509Z,1.90
2017-05-19T22:38:46.839Z,1.72
2017-05-19T22:41:21.076Z,1.84
2017-05-19T22:43:55.252Z,1.64
2017-05-19T22:46:29.479Z,1.90
2017-05-19T22:49:03.784Z,1.72
2017-05-19T22:51:38.111Z,1.80
2017-05-19T22:54:12.378Z,1.60
2017-05-19T22:56:46.574Z,1.60
2017-05-19T22:59:20.916Z,1.46
2017-05-19T23:01:55.307Z,1.92
2017-05-19T23:17:22.469Z,1.30
2017-05-19T23:19:56.771Z,1.48
2017-05-19T23:22:31.088Z,1.60
2017-05-19T23:25:05.329Z,1.50
2017-05-19T23:27:39.471Z,1.52
2017-05-19T23:30:20.761Z,1.66
2017-05-19T23:32:55.020Z,1.50
2017-05-19T23:35:29.248Z,1.68
2017-05-19T23:38:03.513Z,1.74
2017-05-19T23:40:37.859Z,1.50
2017-05-19T23:43:12.064Z,1.38
2017-05-19T23:45:46.302Z,1.40
2017-05-19T23:48:20.461Z,1.54
2017-05-19T23:50:54.716Z,1.60
2017-05-19T23:53:28.836Z,1.46
2017-05-19T23:56:03.060Z,1.50
2017-05-19T23:58:37.373Z,1.40
